Apostle Islands National Lak, Wisconsin
Current Conditions -  °F | °C
As of 4:53 AM on Sunday 21 Dec 2014 (Local Time) from KASX Reporting Station
Overcast Overcast  
Wind Chill: 22°   Ceiling: 1500
Heat Index: 31°   Visibility: 10mi
Dew Point: 26°   Wind: 12mph
Humidity: 82%   Direction: 190°S
Pressure: 30.02"   Gusts: NA
Location:  46.8614°N, 90.9101°W
Report Text: KASX 211053Z AUTO 19010KT 10SM OVC015 M01/M03 A3002 RMK AO2 SLP177 T10061033
Loading
Personal Weather Stations






























Interactive Weather Map New forecast layout! Learn more

10-Day Weather Forecast

Advertisements
Track Severe Weather on mobile